Time;durP1;ratioP1;P1;durP2;ratioP2;P2;SDS_P1;SDS_P2;PMS_P1;PMS_P2;Temp;Humidity;BMP_temperature;BMP_pressure;BME280_temperature;BME280_humidity;BME280_pressure;Samples;Min_cycle;Max_cycle;Signal;HPM_P1;HPM_P2
2023/08/11 00:00:27;;;;;;;;;;;17.30;99.90;;;;;;5059948;28;19939;-76
2023/08/11 00:02:53;;;;;;;;;;;17.20;99.90;;;;;;5076513;28;19925;-75
2023/08/11 00:05:19;;;;;;;;;;;17.20;99.90;;;;;;5076399;28;19920;-75
2023/08/11 00:07:50;;;;;;;;;;;17.20;99.90;;;;;;5060166;28;19966;-74
2023/08/11 00:10:23;;;;;;;;;;;17.20;99.90;;;;;;5076503;28;19931;-73
2023/08/11 00:12:49;;;;;;;;;;;17.10;99.90;;;;;;5059672;28;19928;-74
2023/08/11 00:15:15;;;;;;;;;;;17.00;99.90;;;;;;5075832;28;20384;-73
2023/08/11 00:17:40;;;;;;;;;;;17.00;99.90;;;;;;5059587;28;19927;-75
2023/08/11 00:20:15;;;;;;;;;;;16.90;99.90;;;;;;5075604;28;19924;-73
2023/08/11 00:22:44;;;;;;;;;;;16.90;99.90;;;;;;5075551;28;19924;-75
2023/08/11 00:25:10;;;;;;;;;;;16.90;99.90;;;;;;5074857;28;19927;-74
2023/08/11 00:27:36;;;;;;;;;;;16.90;99.90;;;;;;5076004;28;19925;-74
2023/08/11 00:30:05;;;;;;;;;;;16.80;99.90;;;;;;5075905;28;19920;-73
2023/08/11 00:32:34;;;;;;;;;;;16.80;99.90;;;;;;5042505;28;19928;-74
2023/08/11 00:34:59;;;;;;;;;;;16.90;99.90;;;;;;5075775;28;19920;-73
2023/08/11 00:37:26;;;;;;;;;;;16.80;99.90;;;;;;5059114;28;19920;-74
2023/08/11 00:39:51;;;;;;;;;;;16.80;99.90;;;;;;5042532;28;20364;-73
2023/08/11 00:42:17;;;;;;;;;;;16.80;99.90;;;;;;5077044;28;19950;-74
2023/08/11 00:44:43;;;;;;;;;;;16.70;99.90;;;;;;5075493;28;20457;-73
2023/08/11 00:47:09;;;;;;;;;;;16.70;99.90;;;;;;5075692;28;19921;-75
2023/08/11 00:49:38;;;;;;;;;;;16.70;99.90;;;;;;5058836;28;19920;-74
2023/08/11 00:52:04;;;;;;;;;;;16.60;99.90;;;;;;5075169;28;19921;-73
2023/08/11 00:54:35;;;;;;;;;;;16.60;99.90;;;;;;5058818;28;20015;-75
2023/08/11 00:57:02;;;;;;;;;;;16.60;99.90;;;;;;5058785;28;19979;-66
2023/08/11 00:59:28;;;;;;;;;;;16.60;99.90;;;;;;5074112;28;20044;-66
2023/08/11 01:01:54;;;;;;;;;;;16.50;99.90;;;;;;5057402;28;19964;-64
2023/08/11 01:04:19;;;;;;;;;;;16.40;99.90;;;;;;5074433;28;19921;-65
2023/08/11 01:07:05;;;;;;;;;;;16.40;99.90;;;;;;5074362;28;19920;-66
2023/08/11 01:09:37;;;;;;;;;;;16.40;99.90;;;;;;5073298;28;19924;-65
2023/08/11 01:12:22;;;;;;;;;;;16.40;99.90;;;;;;5074201;28;20358;-65
2023/08/11 01:15:10;;;;;;;;;;;16.40;99.90;;;;;;5057666;28;20007;-65
2023/08/11 01:17:38;;;;;;;;;;;16.40;99.90;;;;;;5057404;28;20391;-64
2023/08/11 01:20:10;;;;;;;;;;;16.40;99.90;;;;;;5073679;28;19920;-65
2023/08/11 01:22:38;;;;;;;;;;;16.40;99.90;;;;;;5074018;28;19931;-66
2023/08/11 01:25:23;;;;;;;;;;;16.30;99.90;;;;;;5074951;28;19921;-67
2023/08/11 01:27:52;;;;;;;;;;;16.30;99.90;;;;;;5056978;28;19924;-65
2023/08/11 01:30:18;;;;;;;;;;;16.30;99.90;;;;;;5056972;28;19927;-66
2023/08/11 01:32:44;;;;;;;;;;;16.20;99.90;;;;;;5073535;28;19920;-65
2023/08/11 01:35:22;;;;;;;;;;;16.20;99.90;;;;;;5057205;28;19921;-66
2023/08/11 01:37:48;;;;;;;;;;;16.20;99.90;;;;;;5073593;28;19920;-65
2023/08/11 01:40:14;;;;;;;;;;;16.20;99.90;;;;;;5056863;28;20446;-65
2023/08/11 01:42:41;;;;;;;;;;;16.20;99.90;;;;;;5073075;28;19932;-66
2023/08/11 01:45:21;;;;;;;;;;;;;;;;;;;;;
2023/08/11 01:47:53;;;;;;;;;;;16.10;99.90;;;;;;5073277;28;19975;-67
2023/08/11 01:50:19;;;;;;;;;;;16.00;99.90;;;;;;5073504;28;19920;-65
2023/08/11 01:52:46;;;;;;;;;;;16.00;99.90;;;;;;5074416;28;19920;-66
2023/08/11 01:55:13;;;;;;;;;;;16.00;99.90;;;;;;5073875;28;19924;-64
2023/08/11 01:57:42;;;;;;;;;;;15.90;99.90;;;;;;5074400;28;19935;-65
2023/08/11 02:00:12;;;;;;;;;;;15.80;99.90;;;;;;5074413;28;20356;-64
2023/08/11 02:02:38;;;;;;;;;;;15.80;99.90;;;;;;5074453;28;20007;-66
2023/08/11 02:05:16;;;;;;;;;;;15.80;99.90;;;;;;5057761;28;19920;-64
2023/08/11 02:07:42;;;;;;;;;;;15.80;99.90;;;;;;5074152;28;19920;-66
2023/08/11 02:10:08;;;;;;;;;;;15.80;99.90;;;;;;5074805;28;19935;-64
2023/08/11 02:12:34;;;;;;;;;;;15.80;99.90;;;;;;5073256;28;19920;-65
2023/08/11 02:15:00;;;;;;;;;;;15.80;99.90;;;;;;5040001;28;20292;-66
2023/08/11 02:17:48;;;;;;;;;;;15.80;99.90;;;;;;5056269;28;19990;-68
2023/08/11 02:22:52;;;;;;;;;;;15.70;99.90;;;;;;5072923;28;19920;-69
2023/08/11 02:25:17;;;;;;;;;;;15.60;99.90;;;;;;5072690;28;19920;-66
2023/08/11 02:27:43;;;;;;;;;;;15.70;99.90;;;;;;5073039;28;20369;-66
2023/08/11 02:30:11;;;;;;;;;;;15.70;99.90;;;;;;5072936;28;19920;-65
2023/08/11 02:32:54;;;;;;;;;;;15.70;99.90;;;;;;5073092;28;19924;-67
2023/08/11 02:35:25;;;;;;;;;;;15.60;99.90;;;;;;5056362;28;19970;-66
2023/08/11 02:37:52;;;;;;;;;;;15.60;99.90;;;;;;5055724;28;19927;-66
2023/08/11 02:40:19;;;;;;;;;;;15.50;99.90;;;;;;5055957;28;19978;-65
2023/08/11 02:42:49;;;;;;;;;;;15.50;99.90;;;;;;5072363;28;19924;-67
2023/08/11 02:45:27;;;;;;;;;;;15.50;99.90;;;;;;5073884;28;20398;-65
2023/08/11 02:47:53;;;;;;;;;;;15.50;99.90;;;;;;5071833;28;20007;-66
2023/08/11 02:50:19;;;;;;;;;;;15.60;99.90;;;;;;5055929;28;19963;-66
2023/08/11 02:52:44;;;;;;;;;;;15.60;99.90;;;;;;5072501;28;19929;-66
2023/08/11 02:55:13;;;;;;;;;;;15.60;99.90;;;;;;5055983;28;19921;-66
2023/08/11 02:57:39;;;;;;;;;;;15.60;99.90;;;;;;5072283;28;20007;-67
2023/08/11 03:00:14;;;;;;;;;;;15.50;99.90;;;;;;5055526;28;19967;-67
2023/08/11 03:02:41;;;;;;;;;;;15.40;99.90;;;;;;5056309;28;19921;-66
2023/08/11 03:05:07;;;;;;;;;;;15.40;99.90;;;;;;5072177;28;19974;-66
2023/08/11 03:07:34;;;;;;;;;;;15.40;99.90;;;;;;5055465;28;19920;-67
2023/08/11 03:10:01;;;;;;;;;;;15.30;99.90;;;;;;5072355;28;19921;-66
2023/08/11 03:12:28;;;;;;;;;;;15.20;99.90;;;;;;5038886;28;19986;-68
2023/08/11 03:14:54;;;;;;;;;;;15.20;99.90;;;;;;5072277;28;19920;-68
2023/08/11 03:17:25;;;;;;;;;;;15.30;99.90;;;;;;5072041;28;19920;-65
2023/08/11 03:19:53;;;;;;;;;;;15.50;99.90;;;;;;5056085;28;19920;-66
2023/08/11 03:22:22;;;;;;;;;;;15.40;99.90;;;;;;5071902;28;19925;-66
2023/08/11 03:24:48;;;;;;;;;;;15.40;99.90;;;;;;5055342;28;19921;-66
2023/08/11 03:27:17;;;;;;;;;;;15.40;99.90;;;;;;5055625;28;20024;-67
2023/08/11 03:30:12;;;;;;;;;;;15.40;99.90;;;;;;5057393;28;20360;-66
2023/08/11 03:32:41;;;;;;;;;;;15.40;99.90;;;;;;5071304;28;19920;-65
2023/08/11 03:35:07;;;;;;;;;;;15.30;99.90;;;;;;5055229;28;19971;-65
2023/08/11 03:37:36;;;;;;;;;;;15.30;99.90;;;;;;5071813;28;19960;-66
2023/08/11 03:40:16;;;;;;;;;;;15.30;99.90;;;;;;5056527;28;19924;-65
2023/08/11 03:42:45;;;;;;;;;;;15.30;99.90;;;;;;5055190;28;19928;-66
2023/08/11 03:45:19;;;;;;;;;;;15.30;99.90;;;;;;5038928;28;19920;-65
2023/08/11 03:47:54;;;;;;;;;;;15.20;99.90;;;;;;5071626;28;19921;-65
2023/08/11 03:50:21;;;;;;;;;;;15.20;99.90;;;;;;5055451;28;19927;-66
2023/08/11 03:52:47;;;;;;;;;;;15.20;99.90;;;;;;5071721;28;20007;-65
2023/08/11 03:55:13;;;;;;;;;;;15.20;99.90;;;;;;5071957;28;19928;-66
2023/08/11 03:57:39;;;;;;;;;;;15.20;99.90;;;;;;5054964;28;19920;-65
2023/08/11 04:00:06;;;;;;;;;;;15.20;99.90;;;;;;5056239;28;20014;-65
2023/08/11 04:02:32;;;;;;;;;;;15.20;99.90;;;;;;5058502;28;19936;-66
2023/08/11 04:04:57;;;;;;;;;;;15.10;99.90;;;;;;5058809;28;19951;-66
2023/08/11 04:07:23;;;;;;;;;;;15.00;99.90;;;;;;5075121;28;19920;-66
2023/08/11 04:09:49;;;;;;;;;;;15.10;99.90;;;;;;5075103;28;20257;-65
2023/08/11 04:12:15;;;;;;;;;;;15.00;99.90;;;;;;5075347;28;19920;-65
2023/08/11 04:14:40;;;;;;;;;;;15.00;99.90;;;;;;5076524;28;19927;-65
2023/08/11 04:17:13;;;;;;;;;;;15.00;99.90;;;;;;5075195;28;19938;-66
2023/08/11 04:19:53;;;;;;;;;;;15.00;99.90;;;;;;5058530;28;19924;-66
2023/08/11 04:22:19;;;;;;;;;;;15.00;99.90;;;;;;5074820;28;19925;-65
2023/08/11 04:24:45;;;;;;;;;;;15.10;99.90;;;;;;5076220;28;19921;-66
2023/08/11 04:27:12;;;;;;;;;;;15.10;99.90;;;;;;5058922;28;20007;-73
2023/08/11 04:29:38;;;;;;;;;;;15.10;99.90;;;;;;5075647;28;19959;-74
2023/08/11 04:32:04;;;;;;;;;;;15.10;99.90;;;;;;5058770;28;19924;-72
2023/08/11 04:34:33;;;;;;;;;;;15.10;99.90;;;;;;5075253;28;19976;-73
2023/08/11 04:36:59;;;;;;;;;;;15.10;99.90;;;;;;5075300;28;19967;-73
2023/08/11 04:39:25;;;;;;;;;;;15.00;99.90;;;;;;5075482;28;19946;-73
2023/08/11 04:41:51;;;;;;;;;;;15.10;99.90;;;;;;5058464;28;20003;-74
2023/08/11 04:44:16;;;;;;;;;;;15.00;99.90;;;;;;5058147;28;20047;-75
2023/08/11 04:46:42;;;;;;;;;;;15.00;99.90;;;;;;5074964;28;19920;-73
2023/08/11 04:49:10;;;;;;;;;;;15.00;99.90;;;;;;5075034;28;20394;-74
2023/08/11 04:51:36;;;;;;;;;;;15.00;99.90;;;;;;5075001;28;19932;-74
2023/08/11 04:54:03;;;;;;;;;;;15.10;99.90;;;;;;5075381;28;19920;-73
2023/08/11 04:56:29;;;;;;;;;;;15.10;99.90;;;;;;5075476;28;20370;-73
2023/08/11 04:59:03;;;;;;;;;;;15.20;99.90;;;;;;5075003;28;19983;-75
2023/08/11 05:01:29;;;;;;;;;;;15.20;99.90;;;;;;5058259;28;19924;-75
2023/08/11 05:03:55;;;;;;;;;;;15.20;99.90;;;;;;5075969;28;20015;-73
2023/08/11 05:06:31;;;;;;;;;;;15.30;99.90;;;;;;5059638;28;19921;-75
2023/08/11 05:08:56;;;;;;;;;;;15.40;99.90;;;;;;5075027;28;19924;-73
2023/08/11 05:11:26;;;;;;;;;;;15.50;99.90;;;;;;5077044;28;19921;-73
2023/08/11 05:13:52;;;;;;;;;;;15.60;99.90;;;;;;5076903;28;19920;-74
2023/08/11 05:16:38;;;;;;;;;;;15.60;99.90;;;;;;5076625;28;20386;-74
2023/08/11 05:19:07;;;;;;;;;;;15.70;99.90;;;;;;5074530;28;19931;-74
2023/08/11 05:21:33;;;;;;;;;;;15.70;99.90;;;;;;5074178;28;19924;-74
2023/08/11 05:23:58;;;;;;;;;;;15.80;99.90;;;;;;5074530;28;19927;-75
2023/08/11 05:26:24;;;;;;;;;;;15.80;99.90;;;;;;5076050;28;19921;-75
2023/08/11 05:28:59;;;;;;;;;;;15.90;99.90;;;;;;5058965;28;19966;-75
2023/08/11 05:31:24;;;;;;;;;;;16.00;99.90;;;;;;5057866;28;19920;-75
2023/08/11 05:33:53;;;;;;;;;;;16.20;99.90;;;;;;5074210;28;19946;-75
2023/08/11 05:36:19;;;;;;;;;;;16.40;99.90;;;;;;5074339;28;20261;-74
2023/08/11 05:38:48;;;;;;;;;;;16.60;99.90;;;;;;5057980;28;19921;-72
2023/08/11 05:41:13;;;;;;;;;;;16.90;99.90;;;;;;5074713;28;19971;-73
2023/08/11 05:43:39;;;;;;;;;;;17.20;99.90;;;;;;5040528;28;19924;-74
2023/08/11 05:46:06;;;;;;;;;;;17.50;99.90;;;;;;5041357;28;20377;-73
2023/08/11 05:48:33;;;;;;;;;;;17.90;99.90;;;;;;5074366;28;19924;-73
2023/08/11 05:50:58;;;;;;;;;;;18.10;99.90;;;;;;5040898;28;20006;-74
2023/08/11 05:53:24;;;;;;;;;;;18.40;99.90;;;;;;5073571;28;19924;-73
2023/08/11 05:55:50;;;;;;;;;;;18.70;99.90;;;;;;5057533;28;19964;-73
2023/08/11 05:58:19;;;;;;;;;;;19.10;99.90;;;;;;5073862;28;19982;-72
2023/08/11 06:00:45;;;;;;;;;;;19.30;99.90;;;;;;5074078;28;19971;-73
2023/08/11 06:03:11;;;;;;;;;;;19.50;99.90;;;;;;5057492;28;19928;-73
2023/08/11 06:05:37;;;;;;;;;;;19.70;99.90;;;;;;5073845;28;19925;-75
2023/08/11 06:08:03;;;;;;;;;;;19.80;99.90;;;;;;5057253;28;19920;-76
2023/08/11 06:10:40;;;;;;;;;;;20.10;99.90;;;;;;5056940;28;19921;-75
2023/08/11 06:13:05;;;;;;;;;;;20.20;99.90;;;;;;5074443;28;19966;-75
2023/08/11 06:15:31;;;;;;;;;;;20.40;99.90;;;;;;5073207;28;19920;-74
2023/08/11 06:17:57;;;;;;;;;;;21.00;99.90;;;;;;5073299;28;20015;-74
2023/08/11 06:20:31;;;;;;;;;;;21.10;99.90;;;;;;5072242;28;20039;-74
2023/08/11 06:23:03;;;;;;;;;;;21.10;99.90;;;;;;5072625;28;19968;-73
2023/08/11 06:25:29;;;;;;;;;;;21.40;99.90;;;;;;5057406;28;19927;-73
2023/08/11 06:27:58;;;;;;;;;;;21.90;99.90;;;;;;5073262;28;19920;-73
2023/08/11 06:30:23;;;;;;;;;;;22.00;99.90;;;;;;5073082;28;19920;-73
2023/08/11 06:32:49;;;;;;;;;;;21.90;99.90;;;;;;5039941;28;20423;-74
2023/08/11 06:35:15;;;;;;;;;;;22.10;99.90;;;;;;5073747;28;19974;-75
2023/08/11 06:37:40;;;;;;;;;;;22.60;99.90;;;;;;5072942;28;19927;-75
2023/08/11 06:40:07;;;;;;;;;;;23.00;99.90;;;;;;5057133;28;19930;-72
2023/08/11 06:42:34;;;;;;;;;;;23.00;99.90;;;;;;5072718;28;20450;-72
2023/08/11 06:45:00;;;;;;;;;;;22.90;99.90;;;;;;5073550;28;19940;-75
2023/08/11 06:47:26;;;;;;;;;;;23.20;99.90;;;;;;5072802;28;20372;-67
2023/08/11 06:49:51;;;;;;;;;;;23.50;99.90;;;;;;5072588;28;19920;-66
2023/08/11 06:52:18;;;;;;;;;;;23.40;99.90;;;;;;5072164;28;20003;-66
2023/08/11 06:54:43;;;;;;;;;;;23.80;99.90;;;;;;5072367;28;19978;-66
2023/08/11 06:57:12;;;;;;;;;;;24.00;99.90;;;;;;5072416;28;20452;-65
2023/08/11 06:59:47;;;;;;;;;;;23.90;99.90;;;;;;5040446;28;20383;-66
2023/08/11 07:02:13;;;;;;;;;;;23.60;99.90;;;;;;5055535;28;19925;-65
2023/08/11 07:04:39;;;;;;;;;;;23.50;99.90;;;;;;5055554;28;20394;-65
2023/08/11 07:07:05;;;;;;;;;;;23.70;99.90;;;;;;5055848;28;20376;-65
2023/08/11 07:09:32;;;;;;;;;;;24.00;99.90;;;;;;5072080;28;19924;-63
2023/08/11 07:11:58;;;;;;;;;;;24.00;99.90;;;;;;5055349;28;19927;-66
2023/08/11 07:14:43;;;;;;;;;;;24.40;99.90;;;;;;5056413;28;19925;-65
2023/08/11 07:17:09;;;;;;;;;;;24.50;99.90;;;;;;5073907;28;19974;-65
2023/08/11 07:19:45;;;;;;;;;;;24.60;99.90;;;;;;5073242;28;20380;-65
2023/08/11 07:22:10;;;;;;;;;;;24.60;99.90;;;;;;5073483;28;19925;-63
2023/08/11 07:24:36;;;;;;;;;;;24.60;99.30;;;;;;5072386;28;20353;-65
2023/08/11 07:27:02;;;;;;;;;;;24.40;99.20;;;;;;5055502;28;19921;-65
2023/08/11 07:29:27;;;;;;;;;;;24.70;99.90;;;;;;5073418;28;19921;-66
2023/08/11 07:31:53;;;;;;;;;;;24.70;99.90;;;;;;5073365;28;19921;-66
2023/08/11 07:34:18;;;;;;;;;;;25.00;99.90;;;;;;5057360;28;19921;-65
2023/08/11 07:36:44;;;;;;;;;;;24.90;99.40;;;;;;5075979;28;19921;-64
2023/08/11 07:39:10;;;;;;;;;;;25.00;99.90;;;;;;5076017;28;19927;-65
2023/08/11 07:41:36;;;;;;;;;;;25.40;99.80;;;;;;5058926;28;20330;-65
2023/08/11 07:44:02;;;;;;;;;;;25.60;99.30;;;;;;5074206;28;20006;-66
2023/08/11 07:46:27;;;;;;;;;;;25.50;98.60;;;;;;5075803;28;19942;-65
2023/08/11 07:48:57;;;;;;;;;;;25.60;99.10;;;;;;5058817;28;20015;-65
2023/08/11 07:51:25;;;;;;;;;;;25.50;98.40;;;;;;5059224;28;19927;-64
2023/08/11 07:53:54;;;;;;;;;;;25.60;98.50;;;;;;5075419;28;19921;-66
2023/08/11 07:56:23;;;;;;;;;;;25.80;98.60;;;;;;5075735;28;19921;-66
2023/08/11 07:58:48;;;;;;;;;;;25.90;99.30;;;;;;5075506;28;19920;-64
2023/08/11 08:01:14;;;;;;;;;;;26.00;97.90;;;;;;5075265;28;19946;-66
2023/08/11 08:03:43;;;;;;;;;;;26.20;98.10;;;;;;5042316;28;19927;-66
2023/08/11 08:06:09;;;;;;;;;;;26.10;96.40;;;;;;5075538;28;20372;-63
2023/08/11 08:08:34;;;;;;;;;;;25.90;99.00;;;;;;5075385;28;20003;-64
2023/08/11 08:11:00;;;;;;;;;;;26.00;98.50;;;;;;5075083;28;19921;-63
2023/08/11 08:13:27;;;;;;;;;;;26.00;97.20;;;;;;5075382;28;20388;-65
2023/08/11 08:15:52;;;;;;;;;;;25.70;97.50;;;;;;5075027;28;19924;-66
2023/08/11 08:18:20;;;;;;;;;;;25.90;99.40;;;;;;5075248;28;19920;-66
2023/08/11 08:20:46;;;;;;;;;;;26.10;97.50;;;;;;5058872;28;19931;-66
2023/08/11 08:23:12;;;;;;;;;;;26.00;97.00;;;;;;5075023;28;20427;-64
2023/08/11 08:25:38;;;;;;;;;;;25.90;97.00;;;;;;5074973;28;19927;-66
2023/08/11 08:28:05;;;;;;;;;;;26.10;98.60;;;;;;5074839;28;19920;-66
2023/08/11 08:30:31;;;;;;;;;;;26.30;96.60;;;;;;5074981;28;19924;-66
2023/08/11 08:32:56;;;;;;;;;;;26.30;97.20;;;;;;5058042;28;19930;-66
2023/08/11 08:35:22;;;;;;;;;;;26.50;98.40;;;;;;5058147;28;20010;-66
2023/08/11 08:37:51;;;;;;;;;;;26.60;97.30;;;;;;5074709;28;20297;-66
2023/08/11 08:40:17;;;;;;;;;;;26.70;96.30;;;;;;5074719;28;20019;-66
2023/08/11 08:42:44;;;;;;;;;;;26.90;96.50;;;;;;5057757;28;20007;-66
2023/08/11 08:45:16;;;;;;;;;;;26.80;96.10;;;;;;5057468;28;20011;-64
2023/08/11 08:47:43;;;;;;;;;;;26.60;95.50;;;;;;5074561;28;19921;-65
2023/08/11 08:50:09;;;;;;;;;;;26.50;96.40;;;;;;5074173;28;19927;-66
2023/08/11 08:52:35;;;;;;;;;;;26.60;97.70;;;;;;5074390;28;19920;-65
2023/08/11 08:55:01;;;;;;;;;;;26.70;97.30;;;;;;5058217;28;20329;-66
2023/08/11 08:57:27;;;;;;;;;;;26.70;96.50;;;;;;5074352;28;19977;-67
2023/08/11 08:59:53;;;;;;;;;;;26.80;97.90;;;;;;5058225;28;20391;-66
2023/08/11 09:02:19;;;;;;;;;;;26.90;97.70;;;;;;5074286;28;19924;-66
2023/08/11 09:04:45;;;;;;;;;;;27.00;94.60;;;;;;5058057;28;19920;-65
2023/08/11 09:07:12;;;;;;;;;;;26.80;96.80;;;;;;5074223;28;19983;-65
2023/08/11 09:09:40;;;;;;;;;;;26.70;97.30;;;;;;5074038;28;20009;-65
2023/08/11 09:15:08;;;;;;;;;;;26.70;96.00;;;;;;5046860;28;19921;-65
2023/08/11 09:17:35;;;;;;;;;;;26.90;95.30;;;;;;5073985;28;19924;-65
2023/08/11 09:20:01;;;;;;;;;;;27.10;97.70;;;;;;5073886;28;19921;-65
2023/08/11 09:22:26;;;;;;;;;;;27.10;96.60;;;;;;5073690;28;19996;-65
2023/08/11 09:24:53;;;;;;;;;;;27.40;95.30;;;;;;5073952;28;19935;-66
2023/08/11 09:27:20;;;;;;;;;;;27.40;95.70;;;;;;5074017;28;19920;-65
2023/08/11 09:29:51;;;;;;;;;;;27.60;96.20;;;;;;5073778;28;19934;-65
2023/08/11 09:32:20;;;;;;;;;;;27.60;95.00;;;;;;5074012;28;19931;-66
2023/08/11 09:34:46;;;;;;;;;;;27.50;95.50;;;;;;5056955;28;19924;-66
2023/08/11 09:37:12;;;;;;;;;;;27.50;94.60;;;;;;5056941;28;19970;-66
2023/08/11 09:39:38;;;;;;;;;;;27.50;95.00;;;;;;5057554;28;19935;-66
2023/08/11 09:42:07;;;;;;;;;;;27.60;96.10;;;;;;5073366;28;19925;-66
2023/08/11 09:44:33;;;;;;;;;;;27.80;95.40;;;;;;5073328;28;19931;-65
2023/08/11 09:47:00;;;;;;;;;;;27.80;95.40;;;;;;5056847;28;19927;-65
2023/08/11 09:49:25;;;;;;;;;;;27.80;94.20;;;;;;5073436;28;19928;-66
2023/08/11 09:51:52;;;;;;;;;;;27.80;94.50;;;;;;5056499;28;19921;-65
2023/08/11 09:54:21;;;;;;;;;;;27.80;94.40;;;;;;5073595;28;20391;-67
2023/08/11 09:56:57;;;;;;;;;;;27.90;94.10;;;;;;5072604;28;19920;-66
2023/08/11 09:59:22;;;;;;;;;;;28.00;94.50;;;;;;5072854;28;19920;-66
2023/08/11 10:01:51;;;;;;;;;;;28.10;93.40;;;;;;5072958;28;20398;-66
2023/08/11 10:04:25;;;;;;;;;;;28.40;94.00;;;;;;5072960;28;19967;-66
2023/08/11 10:06:53;;;;;;;;;;;28.60;94.50;;;;;;5073248;28;19975;-66
2023/08/11 10:09:21;;;;;;;;;;;28.60;93.60;;;;;;5073129;28;19925;-68
2023/08/11 10:11:48;;;;;;;;;;;28.70;92.00;;;;;;5056482;28;20441;-65
2023/08/11 10:14:14;;;;;;;;;;;28.60;93.10;;;;;;5074220;28;19920;-66
2023/08/11 10:16:40;;;;;;;;;;;28.40;93.20;;;;;;5073162;28;20007;-65
2023/08/11 10:19:06;;;;;;;;;;;28.50;93.20;;;;;;5072955;28;19971;-65
2023/08/11 10:21:31;;;;;;;;;;;28.50;90.50;;;;;;5072767;28;19931;-64
2023/08/11 10:23:57;;;;;;;;;;;28.30;91.10;;;;;;5072733;28;20396;-67
2023/08/11 10:26:23;;;;;;;;;;;28.10;91.50;;;;;;5072955;28;20322;-67
2023/08/11 10:28:50;;;;;;;;;;;28.00;94.30;;;;;;5072801;28;19920;-65
2023/08/11 10:31:16;;;;;;;;;;;27.90;93.30;;;;;;5072491;28;19928;-66
2023/08/11 10:33:51;;;;;;;;;;;27.90;93.00;;;;;;5072645;28;19920;-67
2023/08/11 10:36:23;;;;;;;;;;;28.00;94.70;;;;;;5072957;28;19921;-66
2023/08/11 10:39:05;;;;;;;;;;;28.10;93.50;;;;;;5039466;28;19920;-66
2023/08/11 10:41:47;;;;;;;;;;;28.20;94.40;;;;;;5073645;28;19975;-66
2023/08/11 10:44:19;;;;;;;;;;;28.30;93.80;;;;;;5072268;28;20411;-66
2023/08/11 10:46:46;;;;;;;;;;;28.40;93.10;;;;;;5073624;28;19920;-65
2023/08/11 10:49:18;;;;;;;;;;;28.50;93.50;;;;;;5072672;28;19920;-67
2023/08/11 10:51:44;;;;;;;;;;;28.60;93.80;;;;;;5072267;28;19920;-67
2023/08/11 10:54:11;;;;;;;;;;;28.70;92.70;;;;;;5055679;28;19920;-66
2023/08/11 10:56:37;;;;;;;;;;;28.60;92.50;;;;;;5072568;28;19924;-66
2023/08/11 10:59:06;;;;;;;;;;;28.70;92.50;;;;;;5058161;28;19921;-72
2023/08/11 11:01:34;;;;;;;;;;;28.70;92.70;;;;;;5074019;28;20326;-72
2023/08/11 11:03:59;;;;;;;;;;;28.80;93.40;;;;;;5057467;28;19942;-71
2023/08/11 11:06:25;;;;;;;;;;;28.90;92.00;;;;;;5076438;28;19920;-73
2023/08/11 11:08:51;;;;;;;;;;;28.90;91.60;;;;;;5064932;28;19927;-72
2023/08/11 11:11:20;;;;;;;;;;;28.90;92.60;;;;;;5085507;28;19920;-72
2023/08/11 11:13:45;;;;;;;;;;;28.90;91.80;;;;;;5089564;28;19975;-72
2023/08/11 11:16:14;;;;;;;;;;;28.80;92.20;;;;;;5091436;28;19920;-71
2023/08/11 11:18:42;;;;;;;;;;;28.80;92.60;;;;;;5074177;28;19920;-71
2023/08/11 11:21:08;;;;;;;;;;;28.90;92.60;;;;;;5092037;28;19924;-73
2023/08/11 11:23:34;;;;;;;;;;;29.00;91.70;;;;;;5072268;28;19974;-75
2023/08/11 11:26:03;;;;;;;;;;;29.10;91.00;;;;;;5070972;28;19973;-71
2023/08/11 11:28:38;;;;;;;;;;;29.20;92.00;;;;;;5082443;28;19968;-73
2023/08/11 11:31:06;;;;;;;;;;;29.30;91.60;;;;;;5064229;28;19966;-75
2023/08/11 11:33:32;;;;;;;;;;;29.40;91.40;;;;;;5081060;28;19921;-75
2023/08/11 11:35:58;;;;;;;;;;;29.50;90.00;;;;;;5078495;28;19966;-73
2023/08/11 11:38:24;;;;;;;;;;;29.20;91.10;;;;;;5080848;28;20015;-73
2023/08/11 11:40:51;;;;;;;;;;;29.10;88.40;;;;;;5063152;28;20330;-71
2023/08/11 11:43:17;;;;;;;;;;;29.10;90.70;;;;;;5079117;28;19924;-74
2023/08/11 11:45:43;;;;;;;;;;;29.10;90.30;;;;;;5079621;28;19921;-72
2023/08/11 11:48:18;;;;;;;;;;;29.20;90.60;;;;;;5061180;28;19921;-74
2023/08/11 11:50:44;;;;;;;;;;;29.20;90.00;;;;;;5061582;28;20011;-72
2023/08/11 11:53:10;;;;;;;;;;;29.30;90.60;;;;;;5080038;28;19920;-74
2023/08/11 11:55:42;;;;;;;;;;;29.30;88.20;;;;;;5077666;28;19966;-76
2023/08/11 11:58:07;;;;;;;;;;;29.40;89.10;;;;;;5077602;28;19974;-74
2023/08/11 12:00:33;;;;;;;;;;;29.20;88.30;;;;;;5077470;28;19920;-73
2023/08/11 12:02:59;;;;;;;;;;;29.00;89.20;;;;;;5077439;28;19927;-73
2023/08/11 12:05:28;;;;;;;;;;;29.00;90.50;;;;;;5060602;28;20423;-73
2023/08/11 12:08:16;;;;;;;;;;;29.00;90.70;;;;;;5062454;28;19944;-73
2023/08/11 12:10:46;;;;;;;;;;;29.10;90.70;;;;;;5076948;28;19970;-72
2023/08/11 12:13:21;;;;;;;;;;;29.30;90.70;;;;;;5060948;28;20007;-73
2023/08/11 12:15:47;;;;;;;;;;;29.40;90.30;;;;;;5076843;28;19976;-74
2023/08/11 12:18:13;;;;;;;;;;;29.50;89.00;;;;;;5078837;28;19988;-73
2023/08/11 12:20:45;;;;;;;;;;;29.60;89.60;;;;;;5075200;28;20015;-75
2023/08/11 12:23:19;;;;;;;;;;;29.60;89.80;;;;;;5076992;28;19943;-72
2023/08/11 12:25:48;;;;;;;;;;;29.60;90.10;;;;;;5059651;28;19920;-75
2023/08/11 12:28:14;;;;;;;;;;;29.70;87.60;;;;;;5059834;28;20300;-74
2023/08/11 12:30:39;;;;;;;;;;;29.60;89.70;;;;;;5076330;28;19921;-73
2023/08/11 12:33:08;;;;;;;;;;;29.60;88.60;;;;;;5076026;28;19920;-74
2023/08/11 12:35:34;;;;;;;;;;;29.60;89.40;;;;;;5059727;28;20054;-72
2023/08/11 12:38:03;;;;;;;;;;;29.70;88.70;;;;;;5074785;28;20427;-66
2023/08/11 12:40:30;;;;;;;;;;;29.70;89.40;;;;;;5074530;28;19927;-65
2023/08/11 12:43:13;;;;;;;;;;;29.70;87.50;;;;;;5041610;28;19920;-66
2023/08/11 12:45:51;;;;;;;;;;;29.70;89.10;;;;;;5057894;28;19920;-66
2023/08/11 12:48:18;;;;;;;;;;;29.60;86.90;;;;;;5074781;28;19924;-66
2023/08/11 12:50:44;;;;;;;;;;;29.60;88.40;;;;;;5074737;28;19920;-65
2023/08/11 12:53:10;;;;;;;;;;;29.50;86.50;;;;;;5058040;28;19970;-65
2023/08/11 12:55:39;;;;;;;;;;;29.60;88.20;;;;;;5057959;28;20303;-65
2023/08/11 12:58:05;;;;;;;;;;;29.60;86.00;;;;;;5057953;28;19920;-65
2023/08/11 13:00:35;;;;;;;;;;;29.60;87.90;;;;;;5074119;28;19924;-65
2023/08/11 13:03:03;;;;;;;;;;;29.60;88.80;;;;;;5058155;28;20308;-64
2023/08/11 13:05:29;;;;;;;;;;;29.70;88.90;;;;;;5074569;28;20377;-65
2023/08/11 13:07:56;;;;;;;;;;;29.80;88.10;;;;;;5074082;28;19920;-63
2023/08/11 13:10:24;;;;;;;;;;;29.70;88.10;;;;;;5074441;28;19970;-65
2023/08/11 13:12:56;;;;;;;;;;;29.90;87.20;;;;;;5074277;28;19921;-66
2023/08/11 13:15:28;;;;;;;;;;;29.90;88.60;;;;;;5073900;28;19920;-65
2023/08/11 13:17:54;;;;;;;;;;;29.90;90.10;;;;;;5057629;28;19986;-64
2023/08/11 13:20:20;;;;;;;;;;;29.90;89.20;;;;;;5073789;28;20392;-66
2023/08/11 13:22:45;;;;;;;;;;;29.90;88.40;;;;;;5074424;28;19924;-65
2023/08/11 13:25:11;;;;;;;;;;;30.00;88.90;;;;;;5057408;28;20331;-66
2023/08/11 13:27:37;;;;;;;;;;;30.00;88.60;;;;;;5056936;28;19924;-66
2023/08/11 13:30:09;;;;;;;;;;;29.90;87.70;;;;;;5073469;28;20007;-66
2023/08/11 13:32:35;;;;;;;;;;;29.80;89.10;;;;;;5073448;28;19928;-68
2023/08/11 13:35:01;;;;;;;;;;;29.60;87.00;;;;;;5073832;28;19921;-66
2023/08/11 13:37:27;;;;;;;;;;;29.50;89.70;;;;;;5073449;28;19928;-65
2023/08/11 13:39:53;;;;;;;;;;;29.40;87.70;;;;;;5073808;28;19920;-69
2023/08/11 13:42:18;;;;;;;;;;;29.40;90.10;;;;;;5056590;28;19970;-67
2023/08/11 13:44:44;;;;;;;;;;;29.50;88.50;;;;;;5073221;28;20380;-67
2023/08/11 13:47:13;;;;;;;;;;;29.60;88.10;;;;;;5073487;28;20026;-66
2023/08/11 13:49:46;;;;;;;;;;;29.70;89.40;;;;;;5057443;28;20288;-66
2023/08/11 13:52:12;;;;;;;;;;;29.60;89.80;;;;;;5073552;28;19971;-66
2023/08/11 13:54:37;;;;;;;;;;;29.70;89.30;;;;;;5073488;28;20402;-64
2023/08/11 13:57:03;;;;;;;;;;;29.70;90.60;;;;;;5056502;28;19920;-65
2023/08/11 13:59:29;;;;;;;;;;;29.80;88.90;;;;;;5056297;28;20378;-65
2023/08/11 14:01:55;;;;;;;;;;;29.80;89.20;;;;;;5073059;28;19924;-65
2023/08/11 14:04:27;;;;;;;;;;;29.80;89.30;;;;;;5074480;28;20029;-66
2023/08/11 14:06:53;;;;;;;;;;;29.70;90.10;;;;;;5056718;28;19927;-65
2023/08/11 14:09:19;;;;;;;;;;;29.80;88.40;;;;;;5073136;28;19946;-64
2023/08/11 14:11:45;;;;;;;;;;;29.80;90.00;;;;;;5072991;28;19921;-64
2023/08/11 14:14:11;;;;;;;;;;;29.90;90.40;;;;;;5073096;28;20252;-65
2023/08/11 14:16:36;;;;;;;;;;;29.80;90.60;;;;;;5072985;28;19925;-65
2023/08/11 14:19:03;;;;;;;;;;;29.70;90.20;;;;;;5072688;28;19921;-65
2023/08/11 14:21:32;;;;;;;;;;;29.60;90.10;;;;;;5072774;28;19932;-65
2023/08/11 14:23:57;;;;;;;;;;;29.50;90.10;;;;;;5072654;28;19921;-64
2023/08/11 14:26:25;;;;;;;;;;;29.40;91.30;;;;;;5055933;28;20009;-66
2023/08/11 14:28:51;;;;;;;;;;;29.50;90.30;;;;;;5055664;28;19970;-65